Tiempo atmosférico en la estación meteorológica de Puebla de Sanabria, Zamora (910 m.)



Fecha
DESCASC
Temp. máxima en grados centígrados (hora)
DESCASC
Temp. mínima en grados centígrados (hora)
DESCASC
Temp. media en grados centígrados
DESCASC
Racha de viento máxima en m/sg (hora)
DESCASC
Velocidad máxima media en intervalos de 10 minutos(hora)
DESCASC
Precipitaciones diarias en mm
DESCASC
Precipitaciones de 00:00 a 06:00 en mm
DESCASC
Precipitaciones de 06:00 a 12:00 en mm
DESCASC
Precipitaciones de 12:00 a 18:00 en mm
DESCASC
Precipitaciones de 18:00 a 24:00 en mm
DESCASC

Gráficas

Temp. máximas Temp. mínimas Temp. medias Precipitaciones Rachas de viento máximas Velocidades máximas media en intervalos de 10 minutos

Datos horarios

Fecha y hora oficial Temperatura (ºC) Velocidad del viento (km/h) Dirección del viento Racha (km/h) Dirección de racha Precipitación (mm) Presión (hPa) Tendencia (hPa) Humedad (%)
2020-01-28 23:00:00 7.7 2 Oeste 5 Sudoeste 0 -- -- 100
2020-01-28 22:00:00 7.2 2 Norte 3 Nordeste 0 -- -- 99
2020-01-28 21:00:00 7.8 0 Calma 2 Nordeste 0 -- -- 99
2020-01-28 20:00:00 8.3 0 Calma 2 Noroeste 0.2 -- -- 97
2020-01-28 19:00:00 8.9 0 Calma 3 Sudoeste 0 -- -- 95
2020-01-28 18:00:00 9.4 2 Sudoeste 3 Sur 0 -- -- 92
2020-01-28 17:00:00 9.4 0 Calma 3 Sudoeste 0.2 -- -- 95
2020-01-28 16:00:00 9.5 3 Sur 3 Sur 0 -- -- 92
2020-01-28 15:00:00 9.4 3 Sudoeste 5 Sudoeste 0 -- -- 90
2020-01-28 14:00:00 9.1 2 Sur 5 Sudoeste 0 -- -- 89
2020-01-28 13:00:00 9 3 Sur 4 Sur 0 -- -- 89
2020-01-28 12:00:00 9 2 Sudoeste 3 Sudoeste 0 -- -- 86
2020-01-28 11:00:00 8.6 2 Oeste 3 Sudoeste 0 -- -- 85
2020-01-28 10:00:00 6.9 2 Sudoeste 6 Este 0 -- -- 90
2020-01-28 09:00:00 6.3 2 Sur 3 Noroeste 0 -- -- 85
2020-01-28 08:00:00 6.7 3 Noroeste 3 Oeste 0 -- -- 84
2020-01-28 07:00:00 7.2 2 Sudeste 6 Este 0 -- -- 87
2020-01-28 06:00:00 6.9 3 Sudeste 6 Este 0 -- -- 87
2020-01-28 05:00:00 7.5 3 Sudeste 5 Sudeste 0 -- -- 91
2020-01-28 04:00:00 7.6 3 Sur 5 Sur 0 -- -- 91
2020-01-28 03:00:00 7.7 3 Sudeste 5 Sur 0 -- -- 97
2020-01-28 02:00:00 7.9 3 Sudeste 5 Sudeste 0 -- -- 98
2020-01-28 01:00:00 7.8 3 Sudeste 3 Este 0.2 -- -- 99
2020-01-28 00:00:00 7.6 3 Sudeste 3 Sudeste 0 -- -- 99
2020-01-27 23:00:00 7.2 3 Sudeste 3 Este 0.6 -- -- 100
2020-01-27 22:00:00 6.7 3 Sudeste 5 Este 0.4 -- -- 99
2020-01-27 21:00:00 6.6 3 Sudeste 5 Este 0.2 -- -- 98
2020-01-27 20:00:00 6.4 3 Sudeste 5 Sudeste 0.2 -- -- 96
2020-01-27 19:00:00 6.5 4 Sudeste 5 Sudeste 0 -- -- 90
2020-01-27 18:00:00 7.5 3 Sudeste 21 Sur 0.2 -- -- 84
2020-01-27 17:00:00 8.7 4 Sur 5 Oeste 0 -- -- 83
2020-01-27 16:00:00 9.8 4 Sudoeste 5 Sur 0 -- -- 75
2020-01-27 15:00:00 8.3 3 Sur 5 Sudoeste 0 -- -- 86
2020-01-27 14:00:00 7.8 3 Sur 14 Sudeste 0.2 -- -- 98
2020-01-27 13:00:00 6.8 3 Este 10 Este 1.2 -- -- 100
2020-01-27 12:00:00 5.8 0 Calma 15 Este 3 -- -- 100
2020-01-27 11:00:00 5.3 6 Sudeste 16 Sudeste 1.6 -- -- 100
2020-01-27 10:00:00 5.1 5 Sudeste 15 Este 1.6 -- -- 100
2020-01-27 09:00:00 4.6 5 Este 11 Sudeste 1 -- -- 100
2020-01-27 08:00:00 4.2 3 Sudeste 10 Sudeste 1.2 -- -- 99
2020-01-27 07:00:00 4.4 3 Sudeste 9 Sudeste 1 -- -- 99
2020-01-27 06:00:00 4.6 2 Sudeste 5 Sudeste 1.2 -- -- 99
2020-01-27 05:00:00 4.6 0 Calma 8 Sur 0.8 -- -- 98
2020-01-27 04:00:00 4.8 3 Sudeste 12 Sudeste 0.2 -- -- 96
2020-01-27 03:00:00 4.9 2 Sudeste 9 Sudeste 0 -- -- 95
2020-01-27 02:00:00 4.9 4 Sudeste 11 Este 0 -- -- 95
2020-01-27 01:00:00 5 3 Este 12 Sudeste 0 -- -- 95
2020-01-27 00:00:00 5.2 5 Sudeste 13 Sudeste 0 -- -- 92
2020-01-26 23:00:00 5.3 5 Este 18 Sudeste 0 -- -- 91
2020-01-26 22:00:00 5.5 6 Sudeste 17 Sudeste 0 -- -- 87
2020-01-26 21:00:00 5.5 4 Sudeste 14 Sudeste 0 -- -- 88
2020-01-26 20:00:00 5.7 5 Sur 15 Sur 0 -- -- 83
2020-01-26 19:00:00 6.1 5 Sur 17 Sur 0 -- -- 78
2020-01-26 18:00:00 6.5 7 Sudoeste 19 Sudoeste 0 -- -- 74
2020-01-26 17:00:00 7.3 5 Sudoeste 11 Sur 0 -- -- 67
2020-01-26 16:00:00 7.8 7 Sudoeste 25 Sur 0 -- -- 63
2020-01-26 15:00:00 7.2 11 Sur 28 Sur 0 -- -- 69
2020-01-26 14:00:00 6.7 10 Sur 23 Sur 0 -- -- 71
2020-01-26 13:00:00 6.5 4 Sur 5 Sur 0 -- -- 75
2020-01-26 12:00:00 4.7 2 Sur 4 Sudeste 0 -- -- 89
2020-01-26 11:00:00 -1 0 Calma 3 Este 0 -- -- 100
2020-01-26 10:00:00 -4.7 2 Norte 4 Norte 0 -- -- 99
2020-01-26 09:00:00 -5.8 0 Calma 3 Noroeste 0 -- -- 97
2020-01-26 08:00:00 -5.5 0 Calma 2 Noroeste 0 -- -- 97
2020-01-26 07:00:00 -5.1 0 Calma 2 Norte 0 -- -- 97
2020-01-26 06:00:00 -4.6 0 Calma 2 Noroeste 0 -- -- 97
2020-01-26 05:00:00 -4.2 0 Calma 11 Oeste 0 -- -- 97
2020-01-26 04:00:00 -3.7 0 Calma 3 Norte 0 -- -- 97
2020-01-26 03:00:00 -3 0 Calma 2 Norte 0 -- -- 98
2020-01-26 02:00:00 -2.4 0 Calma 2 Norte 0 -- -- 98
2020-01-26 01:00:00 -1.4 0 Calma 2 Sudeste 0 -- -- 98
2020-01-26 00:00:00 -1.3 0 Calma 3 Norte 0 -- -- 96
2020-01-25 23:00:00 0.4 0 Calma 3 Norte 0 -- -- 94
2020-01-25 22:00:00 2.2 0 Calma 4 Norte 0 -- -- 93
2020-01-25 21:00:00 3.3 0 Calma 4 Norte 0 -- -- 92
2020-01-25 20:00:00 4.1 2 Norte 4 Este 0 -- -- 89
2020-01-25 19:00:00 4.8 0 Calma 5 Sur 0 -- -- 85
2020-01-25 18:00:00 5.9 0 Calma 7 Sur 0 -- -- 82
2020-01-25 17:00:00 6.5 5 Sur 17 Sudoeste 0 -- -- 82
2020-01-25 16:00:00 7.6 3 Sudeste 13 Sudeste 0 -- -- 71
2020-01-25 15:00:00 7.5 4 Sur 14 Sudeste 0 -- -- 77
2020-01-25 14:00:00 7.9 5 Sudeste 17 Sudeste 0 -- -- 77
2020-01-25 13:00:00 7 3 Este 10 Sudeste 0 -- -- 84
2020-01-25 12:00:00 4.9 0 Calma 3 Sur 0 -- -- 97
2020-01-25 11:00:00 2.1 0 Calma 2 Norte 0 -- -- 100
2020-01-25 10:00:00 0.9 0 Calma 2 Sudeste 0 -- -- 100
2020-01-25 09:00:00 0.7 0 Calma 2 Norte 0 -- -- 100
2020-01-25 08:00:00 0.5 0 Calma 2 Norte 0 -- -- 100
2020-01-25 07:00:00 0.4 0 Calma 3 Norte 0 -- -- 100
2020-01-25 06:00:00 0.5 0 Calma 3 Norte 0 -- -- 100
2020-01-25 05:00:00 0.9 0 Calma 2 Norte 0 -- -- 100
2020-01-25 04:00:00 1.6 0 Calma 2 Norte 0 -- -- 100
2020-01-25 03:00:00 1.3 0 Calma 2 Norte 0 -- -- 100
2020-01-25 02:00:00 0.9 0 Calma 2 Nordeste 0 -- -- 100
2020-01-25 01:00:00 0.4 2 Norte 3 Norte 0 -- -- 100
2020-01-25 00:00:00 -0.2 2 Norte 3 Norte 0 -- -- 100
2020-01-24 23:00:00 0 0 Calma 2 Noroeste 0 -- -- 98
2020-01-24 22:00:00 1.2 0 Calma 2 Norte 0 -- -- 96
2020-01-24 21:00:00 3.4 0 Calma 2 Nordeste 0 -- -- 97
2020-01-24 20:00:00 4.1 0 Calma 3 Oeste 0 -- -- 97
2020-01-24 19:00:00 4.7 0 Calma 4 Sur 0.8 -- -- 96
2020-01-24 18:00:00 5.4 2 Sudeste 4 Sur 0 -- -- 94
2020-01-24 17:00:00 5.9 2 Sudeste 4 Sudeste 0 -- -- 91
2020-01-24 16:00:00 6.5 3 Sur 3 Sur 0 -- -- 89
2020-01-24 15:00:00 6.8 2 Sur 4 Sudeste 0 -- -- 89
2020-01-24 14:00:00 5.6 0 Calma 4 Sur 0 -- -- 94
2020-01-24 13:00:00 5.3 2 Sudeste 4 Sudeste 0 -- -- 95
2020-01-24 12:00:00 4.6 2 Sudeste 4 Sudeste 0 -- -- 99
2020-01-24 11:00:00 3.1 2 Sudeste 4 Sudeste 0 -- -- 100
2020-01-24 10:00:00 2.3 0 Calma 2 Oeste 0.2 -- -- 100
2020-01-24 09:00:00 1.8 0 Calma 2 Oeste 0.2 -- -- 99
2020-01-24 08:00:00 1.8 0 Calma 2 Sudeste 0 -- -- 99
2020-01-24 07:00:00 2 0 Calma 2 Oeste 0 -- -- 98
2020-01-24 06:00:00 2.2 0 Calma 2 Oeste 0 -- -- 98
2020-01-24 05:00:00 2.1 0 Calma 3 Sudeste 0.2 -- -- 98
2020-01-24 04:00:00 2.1 0 Calma 4 Sudeste 0.2 -- -- 97
2020-01-24 03:00:00 2.1 2 Sudeste 3 Sudeste 0 -- -- 96
2020-01-24 02:00:00 1.9 0 Calma 2 Noroeste 0 -- -- 94
2020-01-24 01:00:00 1.6 0 Calma 4 Sur 0 -- -- 93
2020-01-24 00:00:00 1.3 0 Calma 2 Este 0 -- -- 92
2020-01-23 23:00:00 1.1 0 Calma 2 Sudoeste 0 -- -- 91
2020-01-23 22:00:00 0.5 0 Calma 2 Nordeste 0 -- -- 92
2020-01-23 21:00:00 0.1 0 Calma 3 Norte 0 -- -- 92
2020-01-23 20:00:00 1 0 Calma 4 Norte 0 -- -- 88
2020-01-23 19:00:00 3.7 2 Norte 4 Este 0 -- -- 80
2020-01-23 18:00:00 6.2 2 Este 5 Este 0 -- -- 71
2020-01-23 17:00:00 7.4 3 Este 5 Sudeste 0 -- -- 67
2020-01-23 16:00:00 7.2 3 Este 6 Este 0 -- -- 68
2020-01-23 15:00:00 6.9 3 Este 8 Sudeste 0 -- -- 70
2020-01-23 14:00:00 7.9 2 Este 4 Este 0 -- -- 70
2020-01-23 13:00:00 7 3 Sudeste 4 Sudeste 0 -- -- 72
2020-01-23 12:00:00 4.2 0 Calma 3 Este 0 -- -- 84
2020-01-23 11:00:00 0.6 0 Calma 3 Noroeste 0 -- -- 97
2020-01-23 10:00:00 -1.5 2 Noroeste 4 Oeste 0 -- -- 98
2020-01-23 09:00:00 -1.9 0 Calma 3 Norte 0 -- -- 96
2020-01-23 08:00:00 -0.9 0 Calma 4 Norte 0 -- -- 94
2020-01-23 07:00:00 0 0 Calma 9 Norte 0 -- -- 92
2020-01-23 06:00:00 1.2 2 Nordeste 9 Este 0 -- -- 91
2020-01-23 05:00:00 2.2 0 Calma 13 Sudeste 0 -- -- 90
2020-01-23 04:00:00 2.4 0 Calma 12 Nordeste 0 -- -- 91
2020-01-23 03:00:00 2.1 3 Sudeste 8 Este 0 -- -- 90
2020-01-23 02:00:00 3.2 4 Sudeste 9 Sur 0 -- -- 87
2020-01-23 01:00:00 3.7 2 Norte 15 Nordeste 0 -- -- 86
2020-01-23 00:00:00 3.4 4 Nordeste 19 Nordeste 0 -- -- 90
2020-01-22 23:00:00 1 3 Nordeste 8 Norte 0 -- -- 95
2020-01-22 22:00:00 1.2 4 Norte 8 Norte 0 -- -- 89
2020-01-22 21:00:00 2.6 2 Norte 3 Norte 0 -- -- 86
2020-01-22 20:00:00 5 0 Calma 5 Norte 0 -- -- 79
2020-01-22 19:00:00 6 0 Calma 5 Nordeste 0 -- -- 75
2020-01-22 18:00:00 6.7 2 Nordeste 5 Nordeste 0 -- -- 71
2020-01-22 17:00:00 7.5 3 Nordeste 5 Nordeste 0 -- -- 70
2020-01-22 16:00:00 8.3 3 Nordeste 5 Este 0 -- -- 68
2020-01-22 15:00:00 7.4 3 Nordeste 5 Nordeste 0 -- -- 72
2020-01-22 14:00:00 6.6 2 Nordeste 6 Este 0 -- -- 78
2020-01-22 13:00:00 6.2 3 Nordeste 10 Nordeste 0 -- -- 84
2020-01-22 12:00:00 4.7 0 Calma 4 Oeste 0 -- -- 90
2020-01-22 11:00:00 3.7 0 Calma 6 Nordeste 1 -- -- 94
2020-01-22 10:00:00 3.5 4 Nordeste 13 Nordeste 0.4 -- -- 92
2020-01-22 09:00:00 3.3 3 Nordeste 6 Nordeste 0.4 -- -- 92
2020-01-22 08:00:00 2.5 3 Este 6 Este 0 -- -- 87
2020-01-22 07:00:00 2.4 2 Sur 4 Sudoeste 0 -- -- 81
2020-01-22 06:00:00 2.6 2 Sudeste 10 Sudeste 0 -- -- 79
2020-01-22 05:00:00 4.8 3 Sudeste 5 Este 0 -- -- 68
2020-01-22 04:00:00 4.8 3 Norte 5 Noroeste 0 -- -- 66
2020-01-22 03:00:00 5.6 3 Norte 4 Nordeste 0 -- -- 63
2020-01-22 02:00:00 7.9 3 Nordeste 4 Norte 0 -- -- 55
2020-01-22 01:00:00 8.1 4 Nordeste 4 Nordeste 0 -- -- 57
2020-01-22 00:00:00 8.1 3 Nordeste 4 Nordeste 0 -- -- 58
2020-01-21 23:00:00 7.9 3 Nordeste 4 Norte 0 -- -- 61
2020-01-21 22:00:00 7.7 4 Norte 4 Norte 0 -- -- 64
2020-01-21 21:00:00 7.7 4 Nordeste 5 Nordeste 0 -- -- 63
2020-01-21 20:00:00 7.6 3 Nordeste 37 Este 0 -- -- 61
2020-01-21 19:00:00 7 10 Nordeste 35 Norte 0 -- -- 69
2020-01-21 18:00:00 7.6 3 Nordeste 9 Norte 0 -- -- 64
2020-01-21 17:00:00 8.2 4 Nordeste 40 Nordeste 0 -- -- 60
2020-01-21 16:00:00 8.3 11 Nordeste 35 Nordeste 0 -- -- 58
2020-01-21 15:00:00 7.7 8 Nordeste 27 Sudeste 0 -- -- 64
2020-01-21 14:00:00 7 5 Nordeste 26 Nordeste 0 -- -- 70
2020-01-21 13:00:00 8.2 10 Nordeste 33 Este 0 -- -- 50
2020-01-21 12:00:00 8 9 Nordeste 28 Nordeste 0 -- -- 49
2020-01-21 11:00:00 5.7 3 Nordeste 8 Este 0 -- -- 57
2020-01-21 10:00:00 3.5 3 Nordeste 29 Nordeste 0 -- -- 64
2020-01-21 09:00:00 2.3 4 Nordeste 6 Nordeste 0 -- -- 68
2020-01-21 08:00:00 -2.4 2 Norte 4 Norte 0 -- -- 88
2020-01-21 07:00:00 -3.5 0 Calma 5 Norte 0 -- -- 92
2020-01-21 06:00:00 -5.3 0 Calma 3 Norte 0 -- -- 92
2020-01-21 05:00:00 -5.4 0 Calma 3 Norte 0 -- -- 90
2020-01-21 04:00:00 -5 0 Calma 3 Noroeste 0 -- -- 87
2020-01-21 03:00:00 -4.3 0 Calma 3 Norte 0 -- -- 84
2020-01-21 02:00:00 -3.7 0 Calma 3 Norte 0 -- -- 78
2020-01-21 01:00:00 -2.9 0 Calma 4 Noroeste 0 -- -- 73
2020-01-21 00:00:00 -1.7 0 Calma 3 Oeste 0 -- -- 66
2020-01-20 23:00:00 0.4 0 Calma 13 Este 0 -- -- 54
2020-01-20 22:00:00 2 3 Sudeste 13 Sudeste 0 -- -- 46
2020-01-20 21:00:00 3.2 4 Sudeste 17 Norte 0 -- -- 45
2020-01-20 20:00:00 3.6 3 Nordeste 26 Nordeste 0 -- -- 36
2020-01-20 19:00:00 3.5 8 Nordeste 22 Nordeste 0 -- -- 39
2020-01-20 18:00:00 4 4 Nordeste 22 Nordeste 0 -- -- 40
2020-01-20 17:00:00 4.7 5 Nordeste 17 Este 0 -- -- 38
2020-01-20 16:00:00 5.7 4 Este 6 Este 0 -- -- 30
2020-01-20 15:00:00 6.4 4 Nordeste 5 Nordeste 0 -- -- 26
2020-01-20 14:00:00 6.5 4 Nordeste 5 Nordeste 0 -- -- 29
2020-01-20 13:00:00 5.5 4 Nordeste 7 Norte 0 -- -- 36
2020-01-20 12:00:00 4.4 4 Norte 6 Norte 0 -- -- 42
2020-01-20 11:00:00 2 3 Norte 6 Norte 0 -- -- 46
2020-01-20 10:00:00 -0.2 3 Nordeste 7 Norte 0 -- -- 54
2020-01-20 09:00:00 -0.5 4 Nordeste 18 Norte 0 -- -- 59
2020-01-20 08:00:00 -0.4 4 Nordeste 11 Norte 0 -- -- 64
2020-01-20 07:00:00 -0.3 4 Norte 10 Norte 0 -- -- 62
2020-01-20 06:00:00 -0.8 3 Norte 6 Nordeste 0 -- -- 60
2020-01-20 05:00:00 -0.1 4 Nordeste 6 Norte 0 -- -- 58
2020-01-20 04:00:00 0.8 4 Nordeste 18 Norte 0 -- -- 55
2020-01-20 03:00:00 0.8 4 Nordeste 11 Nordeste 0 -- -- 58
2020-01-20 02:00:00 1.1 5 Norte 29 Nordeste 0 -- -- 53
2020-01-20 01:00:00 1.1 5 Nordeste 30 Nordeste 0 -- -- 52
2020-01-20 00:00:00 1 5 Norte 41 Norte 0 -- -- 53
2020-01-19 23:00:00 1.4 5 Nordeste 45 Norte 0 -- -- 52
2020-01-19 22:00:00 1.4 5 Nordeste 39 Nordeste 0 -- -- 48
2020-01-19 21:00:00 1 3 Norte 6 Nordeste 0 -- -- 48
2020-01-19 20:00:00 1.1 3 Norte 6 Noroeste 0 -- -- 49
2020-01-19 19:00:00 2.2 3 Nordeste 5 Nordeste 0 -- -- 48
2020-01-19 18:00:00 5 4 Nordeste 5 Nordeste 0 -- -- 42
2020-01-19 17:00:00 7.5 3 Nordeste 5 Este 0 -- -- 34
2020-01-19 16:00:00 9.3 3 Nordeste 4 Norte 0 -- -- 29
2020-01-19 15:00:00 9.9 4 Norte 4 Norte 0 -- -- 30
2020-01-19 14:00:00 10.6 3 Norte 6 Nordeste 0 -- -- 34
2020-01-19 13:00:00 10.5 3 Norte 4 Norte 0 -- -- 31
2020-01-19 12:00:00 9 2 Norte 21 Este 0 -- -- 33
2020-01-19 11:00:00 6 6 Nordeste 20 Nordeste 0 -- -- 51
2020-01-19 10:00:00 2.9 2 Sur 12 Este 0 -- -- 82
2020-01-19 09:00:00 4.2 3 Sudoeste 13 Oeste 0 -- -- 78
2020-01-19 08:00:00 5.3 6 Noroeste 24 Norte 0 -- -- 75
2020-01-19 07:00:00 4.7 5 Norte 21 Norte 0 -- -- 79
2020-01-19 06:00:00 4.7 7 Norte 25 Este 0 -- -- 78
2020-01-19 05:00:00 4.1 0 Calma 4 Nordeste 0 -- -- 80
2020-01-19 04:00:00 5 3 Sur 4 Sudeste 0 -- -- 78
2020-01-19 03:00:00 3.7 2 Nordeste 3 Sudeste 0 -- -- 88
2020-01-19 02:00:00 0.7 0 Calma 3 Nordeste 0 -- -- 99
2020-01-19 01:00:00 1.6 2 Norte 3 Norte 0 -- -- 98
2020-01-19 00:00:00 2 2 Norte 3 Norte 0 -- -- 95
2020-01-18 23:00:00 2.6 2 Oeste 4 Noroeste 0.2 -- -- 91
2020-01-18 22:00:00 3.1 -- -- -- -- 0.8 -- -- 94
2020-01-18 21:00:00 3.8 2 Sudoeste 3 Noroeste 0 -- -- 88
2020-01-18 20:00:00 3.8 3 Sudoeste 6 Sudoeste 0 -- -- 84
2020-01-18 19:00:00 4.8 3 Sudoeste 32 Oeste 0 -- -- 72
2020-01-18 18:00:00 6.1 4 Oeste 12 Oeste 0 -- -- 78
2020-01-18 17:00:00 7.1 3 Oeste 25 Sudoeste 0.2 -- -- 72
2020-01-18 16:00:00 9.2 7 Sudoeste 36 Sudoeste 0 -- -- 83
2020-01-18 15:00:00 8.6 3 Sudeste 4 Sur 0 -- -- 100
2020-01-18 14:00:00 6.4 2 Este 4 Este 0.2 -- -- 100
2020-01-18 13:00:00 5.7 0 Calma 3 Nordeste 0.2 -- -- 100
2020-01-18 12:00:00 4.3 0 Calma 2 Noroeste 0.4 -- -- 100
2020-01-18 11:00:00 3.5 0 Calma 3 Sur 0.2 -- -- 100
2020-01-18 10:00:00 2.7 0 Calma 3 Noroeste 0.6 -- -- 100
2020-01-18 09:00:00 2.3 0 Calma 3 Oeste 0.4 -- -- 100
2020-01-18 08:00:00 2.1 0 Calma 4 Oeste 0.2 -- -- 99
2020-01-18 07:00:00 1.8 0 Calma 3 Norte 0.6 -- -- 98
2020-01-18 06:00:00 1.9 0 Calma 2 Sur 0.4 -- -- 97
2020-01-18 05:00:00 1.7 2 Sudeste 4 Noroeste 0 -- -- 96
2020-01-18 04:00:00 1.6 3 Norte 5 Norte 0 -- -- 97
2020-01-18 03:00:00 1.5 0 Calma 2 Norte 0 -- -- 95
2020-01-18 02:00:00 1.7 0 Calma 4 Oeste 0 -- -- 94
2020-01-18 01:00:00 1.4 0 Calma 3 Norte 0 -- -- 95
2020-01-18 00:00:00 1.5 0 Calma 4 Norte 0 -- -- 93
2020-01-17 23:00:00 1.9 0 Calma 6 Sur 0 -- -- 92
2020-01-17 22:00:00 2.3 0 Calma 6 Norte 0 -- -- 90
2020-01-17 21:00:00 2.7 0 Calma 3 Norte 0 -- -- 88
2020-01-17 20:00:00 3.1 0 Calma 6 Este 0 -- -- 84
2020-01-17 19:00:00 3.9 2 Sudeste 5 Sudeste 0 -- -- 72
2020-01-17 18:00:00 5.7 4 Oeste 13 Sudoeste 0 -- -- 62
2020-01-17 17:00:00 6.6 7 Oeste 22 Oeste 0 -- -- 58
2020-01-17 16:00:00 7.1 8 Oeste 17 Oeste 0 -- -- 56
2020-01-17 15:00:00 6.8 9 Noroeste 21 Oeste 0 -- -- 61
2020-01-17 14:00:00 6.5 7 Noroeste 15 Oeste 0 -- -- 65
2020-01-17 13:00:00 6.3 3 Oeste 5 Sudoeste 0 -- -- 65
2020-01-17 12:00:00 6 4 Sudoeste 15 Oeste 0 -- -- 61
2020-01-17 11:00:00 4.9 3 Oeste 4 Noroeste 0 -- -- 73
2020-01-17 10:00:00 3.4 3 Sudeste 4 Oeste 0 -- -- 84
2020-01-17 09:00:00 4.1 3 Noroeste 4 Oeste 0 -- -- 73
2020-01-17 08:00:00 4.3 3 Oeste 4 Sudoeste 0 -- -- 74
2020-01-17 07:00:00 3.7 3 Sudoeste 15 Oeste 0 -- -- 84
2020-01-17 06:00:00 2.5 0 Calma 4 Norte 0 -- -- 96
2020-01-17 05:00:00 3.7 0 Calma 3 Sudoeste 0.2 -- -- 96
2020-01-17 04:00:00 5.1 3 Sudoeste 12 Sudoeste 0.2 -- -- 91
2020-01-17 03:00:00 4.2 2 Este 4 Norte 1.6 -- -- 98
2020-01-17 02:00:00 5 3 Noroeste 4 Sur 2.4 -- -- 99
2020-01-17 01:00:00 4.9 3 Sudeste 4 Sudeste 0.4 -- -- 99
2020-01-17 00:00:00 5.3 2 Sur 5 Sudeste 0.2 -- -- 97
2020-01-16 23:00:00 6 3 Sur 5 Sur 0 -- -- 94
2020-01-16 22:00:00 6.2 4 Sur 5 Sur 0 -- -- 93
2020-01-16 21:00:00 6.6 3 Sur 5 Sudoeste 0.2 -- -- 93
2020-01-16 20:00:00 6.5 4 Sur 5 Sudeste 1.4 -- -- 97
2020-01-16 19:00:00 6.4 2 Sudeste 5 Sur 1.8 -- -- 97
2020-01-16 18:00:00 6.8 3 Sudeste 5 Sudeste 0.8 -- -- 95
2020-01-16 17:00:00 7.1 3 Sudeste 12 Sur 0.6 -- -- 93
2020-01-16 16:00:00 7.6 3 Sudeste 5 Sudeste 0.2 -- -- 92
2020-01-16 15:00:00 8 3 Sur 5 Sur 0.2 -- -- 89
2020-01-16 14:00:00 8.1 3 Sur 5 Sur 0 -- -- 89
2020-01-16 13:00:00 8.6 4 Sur 6 Sur 0 -- -- 90
2020-01-16 12:00:00 8.1 4 Sur 23 Sudeste 0 -- -- 95
2020-01-16 11:00:00 8 3 Sur 39 Sur 1.2 -- -- 99
2020-01-16 10:00:00 8.1 3 Sur 4 Sudeste 2 -- -- 100
2020-01-16 09:00:00 7.9 3 Sudeste 4 Sudeste 1.2 -- -- 100
2020-01-16 08:00:00 8.1 3 Sur 7 Sudeste 0 -- -- 98
2020-01-16 07:00:00 8 3 Sur 5 Sudeste 0.2 -- -- 100
2020-01-16 06:00:00 8 3 Sur 3 Sur 0.2 -- -- 100
2020-01-16 05:00:00 8 3 Sudeste 3 Sur 0.4 -- -- 100
2020-01-16 04:00:00 8.1 3 Sudeste 3 Sur 3.2 -- -- 100
2020-01-16 03:00:00 8.1 2 Sudeste 3 Sur 0.2 -- -- 100
2020-01-16 02:00:00 8.2 2 Sudeste 3 Sudeste 0 -- -- 100
2020-01-16 01:00:00 8.2 2 Sudeste 3 Sur 1.6 -- -- 100
2020-01-16 00:00:00 8.2 2 Sur 3 Sudeste 1 -- -- 100
2020-01-15 23:00:00 5.9 0 Calma 2 Sudeste 1.4 -- -- 100
2020-01-15 22:00:00 5.5 0 Calma 2 Norte 0.4 -- -- 100
2020-01-15 21:00:00 5.2 0 Calma 2 Norte 0.6 -- -- 100
2020-01-15 20:00:00 4.8 0 Calma 2 Norte 0 -- -- 98
2020-01-15 19:00:00 5.9 2 Norte -- -- 0 -- -- 95
2020-01-15 18:00:00 8.5 2 Sur -- -- 0 -- -- 91
2020-01-15 17:00:00 9.6 -- -- -- -- 0 -- -- 85
2020-01-15 16:00:00 8.8 2 Sur 4 Este 0 -- -- 96
2020-01-15 15:00:00 7.8 2 Sudeste 3 Este 0 -- -- 98
2020-01-15 14:00:00 7.4 2 Este 8 Sudeste 0.2 -- -- 99
2020-01-15 13:00:00 6.8 0 Calma 3 Sudeste 0 -- -- 98
2020-01-15 12:00:00 6.1 2 Sur 3 Sur 0 -- -- 98
2020-01-15 11:00:00 5.1 2 Sudeste 3 Sudeste 0 -- -- 98
2020-01-15 10:00:00 4.8 2 Este 3 Sudeste 0.8 -- -- 97
2020-01-15 09:00:00 6.2 2 Sudoeste 3 Sur 1.6 -- -- 97
2020-01-15 08:00:00 6.3 3 Sudeste 3 Sudeste 1.4 -- -- 100
2020-01-15 07:00:00 6.3 2 Sudeste 3 Sur 0.4 -- -- 100
2020-01-15 06:00:00 6.2 2 Sudeste 3 Este 1.2 -- -- 100
2020-01-15 05:00:00 6.1 3 Sudeste 3 Este 1.2 -- -- 100
2020-01-15 04:00:00 5.8 3 Sudeste 3 Sudeste 1.4 -- -- 100
2020-01-15 03:00:00 5.4 2 Sur 3 Sudeste 1 -- -- 100
2020-01-15 02:00:00 5.1 2 Sudeste 3 Sudeste 0.6 -- -- 100
2020-01-15 01:00:00 4.8 3 Sur 3 Sur 1 -- -- 100
2020-01-15 00:00:00 4.6 3 Sur 3 Sudeste 0.8 -- -- 100
2020-01-14 23:00:00 4.5 3 Sur 3 Sudeste 0.4 -- -- 100
2020-01-14 22:00:00 4.5 3 Sur 3 Sur 0.4 -- -- 100
2020-01-14 21:00:00 4.6 3 Sur 3 Sudeste 0 -- -- 99
2020-01-14 20:00:00 4.8 2 Sur 3 Sur 0.2 -- -- 98
2020-01-14 19:00:00 4.6 0 Calma 3 Sur 0 -- -- 100
2020-01-14 18:00:00 4.2 0 Calma 2 Este 0 -- -- 100
2020-01-14 17:00:00 4.1 0 Calma 2 Sur 0 -- -- 100
2020-01-14 16:00:00 4 0 Calma 3 Nordeste 0 -- -- 100
2020-01-14 15:00:00 3.8 0 Calma 3 Este 0 -- -- 99
2020-01-14 14:00:00 3.5 0 Calma 3 Sudeste 0 -- -- 99
2020-01-14 13:00:00 3.2 2 Nordeste 3 Este 0 -- -- 99
2020-01-14 12:00:00 3 2 Nordeste 3 Este 0 -- -- 99
2020-01-14 11:00:00 2.8 3 Sudeste 3 Sudeste 0 -- -- 99
2020-01-14 10:00:00 2.4 2 Sudeste 3 Sudeste 0 -- -- 100
2020-01-14 09:00:00 2.2 2 Este 3 Este 0 -- -- 100
2020-01-14 08:00:00 2.2 0 Calma 2 Sudeste 0 -- -- 100
2020-01-14 07:00:00 2.2 0 Calma -- -- 0 -- -- 100
2020-01-14 06:00:00 2.1 2 Sudeste 3 Sudeste 0 -- -- 100
2020-01-14 05:00:00 2.2 2 Sudeste 3 Este 0 -- -- 100
2020-01-14 04:00:00 2.2 0 Calma 2 Este 0.2 -- -- 100
2020-01-14 03:00:00 1.9 0 Calma 3 Sudeste 0 -- -- 99
2020-01-14 02:00:00 1.5 0 Calma 0 Calma 0.2 -- -- 99
2020-01-14 01:00:00 1.6 0 Calma 2 Este 0.2 -- -- 99
2020-01-14 00:00:00 1.7 2 Este 3 Este 0.2 -- -- 98
2020-01-13 23:00:00 1.8 2 Sudeste 3 Este 0 -- -- 97
2020-01-13 22:00:00 0.4 0 Calma 2 Sudeste 0 -- -- 92
2020-01-13 21:00:00 -0.3 0 Calma 2 Sur 0 -- -- 94
2020-01-13 20:00:00 0 0 Calma 2 Norte 0 -- -- 90
2020-01-13 19:00:00 0.4 2 Sudeste 3 Sudeste 0 -- -- 88
2020-01-13 18:00:00 2.5 2 Sudeste -- -- 0 -- -- 79
2020-01-13 17:00:00 4.2 2 Este -- -- 0 -- -- 75
2020-01-13 16:00:00 3.7 -- -- -- -- 0 -- -- 77
2020-01-13 15:00:00 5.1 -- -- -- -- 0 -- -- 71
2020-01-13 14:00:00 5.9 -- -- -- -- 0 -- -- 70
2020-01-13 13:00:00 3.8 2 Sudeste -- -- 0 -- -- 84
2020-01-13 12:00:00 -1.3 0 Calma 2 Sur 0 -- -- 96
2020-01-13 11:00:00 -3.9 0 Calma 0 Calma 0 -- -- 99
2020-01-13 10:00:00 -6.7 0 Calma 0 Calma 0 -- -- 96
2020-01-13 09:00:00 -7.4 0 Calma 0 Calma 0 -- -- 95
2020-01-13 08:00:00 -7.6 0 Calma 0 Calma 0 -- -- 94
2020-01-13 07:00:00 -7.6 0 Calma 0 Calma 0 -- -- 95
2020-01-13 06:00:00 -7.8 0 Calma 0 Calma 0 -- -- 95
2020-01-13 05:00:00 -8 0 Calma 2 Norte 0 -- -- 95
2020-01-13 04:00:00 -7.8 0 Calma 0 Calma 0 -- -- 94
2020-01-13 03:00:00 -7.4 0 Calma 0 Calma 0 -- -- 94
2020-01-13 02:00:00 -6.9 0 Calma 0 Calma 0 -- -- 95
2020-01-13 01:00:00 -6.1 0 Calma 0 Calma 0 -- -- 94
2020-01-13 00:00:00 -5.3 0 Calma 2 Norte 0 -- -- 94
2020-01-12 23:00:00 -4.4 0 Calma 2 Norte 0 -- -- 94
2020-01-12 22:00:00 -3.5 0 Calma 2 Norte 0 -- -- 94
2020-01-12 21:00:00 -2.5 0 Calma 2 Nordeste 0 -- -- 93
2020-01-12 20:00:00 -0.5 0 Calma 2 Sudeste 0 -- -- 88
2020-01-12 19:00:00 2.8 0 Calma 2 Sudeste 0 -- -- 80
2020-01-12 18:00:00 7.1 2 Sudeste -- -- 0 -- -- 69
2020-01-12 17:00:00 9.2 2 Sudeste -- -- 0 -- -- 62
2020-01-12 16:00:00 10.8 -- -- -- -- 0 -- -- 52
2020-01-12 15:00:00 10.5 -- -- -- -- 0 -- -- 55
2020-01-12 14:00:00 7.9 2 Sudeste 2 Sudeste 0 -- -- 59
2020-01-12 13:00:00 5.1 2 Sudeste -- -- 0 -- -- 74
2020-01-12 12:00:00 0.8 0 Calma 2 Sur 0 -- -- 97
2020-01-12 11:00:00 -4.5 0 Calma 0 Calma 0 -- -- 100
2020-01-12 10:00:00 -7.8 0 Calma 0 Calma 0 -- -- 96
2020-01-12 09:00:00 -8.4 0 Calma 2 Norte 0 -- -- 95
2020-01-12 08:00:00 -8.3 0 Calma 2 Norte 0 -- -- 94
2020-01-12 07:00:00 -7.8 0 Calma 2 Noroeste 0 -- -- 94
2020-01-12 06:00:00 -7.2 0 Calma 2 Norte 0 -- -- 95
2020-01-12 05:00:00 -6.6 0 Calma 2 Norte 0 -- -- 95
2020-01-12 04:00:00 -6 0 Calma 2 Norte 0 -- -- 95
2020-01-12 03:00:00 -5.6 0 Calma 0 Calma 0 -- -- 96
2020-01-12 02:00:00 -5.1 0 Calma 2 Oeste 0 -- -- 95
2020-01-12 01:00:00 -4.6 0 Calma 2 Norte 0 -- -- 95
2020-01-12 00:00:00 -3.9 0 Calma 2 Norte 0 -- -- 95
2020-01-11 23:00:00 -3.2 0 Calma 2 Noroeste 0 -- -- 94
2020-01-11 22:00:00 -2.5 0 Calma 2 Norte 0 -- -- 93
2020-01-11 21:00:00 -1.6 0 Calma 2 Norte 0 -- -- 90
2020-01-11 20:00:00 0.4 0 Calma 2 Norte 0 -- -- 82
2020-01-11 19:00:00 3.7 0 Calma 2 Este 0 -- -- 75
2020-01-11 18:00:00 7.8 0 Calma 2 Sudeste 0 -- -- 64
2020-01-11 17:00:00 9.5 2 Sudeste 2 Sudeste 0 -- -- 59
2020-01-11 16:00:00 9.6 2 Sur 2 Sudeste 0 -- -- 58
2020-01-11 15:00:00 8.9 2 Sudeste 2 Sur 0 -- -- 57
2020-01-11 14:00:00 7.7 2 Sur 2 Sudoeste 0 -- -- 64
2020-01-11 13:00:00 5.8 2 Sudoeste 4 Noroeste 0 -- -- 74
2020-01-11 12:00:00 1.5 0 Calma 2 Norte 0 -- -- 93
2020-01-11 11:00:00 -3.6 0 Calma 2 Norte 0 -- -- 100
2020-01-11 10:00:00 -6.8 0 Calma 0 Calma 0 -- -- 98
2020-01-11 09:00:00 -7.7 0 Calma 0 Calma 0 -- -- 95
2020-01-11 08:00:00 -7.3 0 Calma 2 Noroeste 0 -- -- 96
2020-01-11 07:00:00 -7.1 0 Calma 2 Norte 0 -- -- 95
2020-01-11 06:00:00 -6.7 0 Calma 2 Oeste 0 -- -- 95
2020-01-11 05:00:00 -6.2 0 Calma 2 Norte 0 -- -- 96
2020-01-11 04:00:00 -6 0 Calma 0 Calma 0 -- -- 95
2020-01-11 03:00:00 -5.6 0 Calma 2 Noroeste 0 -- -- 95
2020-01-11 02:00:00 -5 0 Calma 2 Norte 0 -- -- 95
2020-01-11 01:00:00 -4.4 0 Calma 2 Noroeste 0 -- -- 95
2020-01-11 00:00:00 -3.7 0 Calma 2 Norte 0 -- -- 93
2020-01-10 23:00:00 -3.2 0 Calma 2 Norte 0 -- -- 92
2020-01-10 22:00:00 -2.4 0 Calma 2 Noroeste 0 -- -- 90
2020-01-10 21:00:00 -1.3 0 Calma 2 Norte 0 -- -- 85
2020-01-10 20:00:00 0.6 0 Calma 2 Norte 0 -- -- 80
2020-01-10 19:00:00 3.8 0 Calma 2 Oeste 0 -- -- 68
2020-01-10 18:00:00 7.5 2 Este -- -- 0 -- -- 55
2020-01-10 17:00:00 9.1 -- -- -- -- 0 -- -- 51
2020-01-10 16:00:00 9.4 5 Sudeste 15 Este 0 -- -- 49
2020-01-10 15:00:00 9.4 5 Sur 17 Sur 0 -- -- 49
2020-01-10 14:00:00 8.3 3 Sudoeste 12 Sudeste 0 -- -- 51
2020-01-10 13:00:00 7.5 6 Sur 12 Sudeste 0 -- -- 56
2020-01-10 12:00:00 4 2 Sudeste 10 Sudeste 0 -- -- 76
2020-01-10 11:00:00 -2.2 2 Norte 8 Norte 0 -- -- 100
2020-01-10 10:00:00 -5.3 2 Noroeste 8 Norte 0 -- -- 99
2020-01-10 09:00:00 -6.3 0 Calma 5 Norte 0 -- -- 97
2020-01-10 08:00:00 -6 0 Calma 4 Norte 0 -- -- 96
2020-01-10 07:00:00 -5.5 0 Calma 3 Nordeste 0 -- -- 96
2020-01-10 06:00:00 -5.1 0 Calma 6 Noroeste 0 -- -- 97
2020-01-10 05:00:00 -5.2 3 Norte 6 Norte 0 -- -- 96
2020-01-10 04:00:00 -4.4 0 Calma 3 Norte 0 -- -- 94
2020-01-10 03:00:00 -3.8 2 Norte 6 Norte 0 -- -- 92
2020-01-10 02:00:00 -3 2 Norte 5 Norte 0 -- -- 90
2020-01-10 01:00:00 -2.2 0 Calma 8 Norte 0 -- -- 85
2020-01-10 00:00:00 0.2 2 Norte 7 Norte 0 -- -- 76
2020-01-09 23:00:00 3.6 3 Norte 34 Oeste 0 -- -- 62
2020-01-09 22:00:00 4.8 15 Noroeste 34 Oeste 0 -- -- 63
2020-01-09 21:00:00 4.9 15 Noroeste 32 Oeste 0 -- -- 67
2020-01-09 20:00:00 6 16 Oeste 33 Oeste 0 -- -- 68
2020-01-09 19:00:00 6.8 3 Sudoeste 23 Oeste 0 -- -- 70
2020-01-09 18:00:00 7.7 5 Sudoeste 39 Oeste 0 -- -- 70
2020-01-09 17:00:00 10 10 Oeste 37 Oeste 0 -- -- 68
2020-01-09 16:00:00 9.9 4 Sudeste 35 Sudoeste 0 -- -- 84
2020-01-09 15:00:00 9.1 7 Sur 30 Sudeste 0 -- -- 87
2020-01-09 14:00:00 9.4 9 Sur 25 Sur 0 -- -- 88
2020-01-09 13:00:00 10.7 -- -- -- -- 0 -- -- 81
2020-01-09 12:00:00 10.7 -- -- -- -- 0 -- -- 81
2020-01-09 11:00:00 3.6 0 Calma 2 Oeste 0 -- -- 99
2020-01-09 10:00:00 -0.2 0 Calma 7 Oeste 0 -- -- 100
2020-01-09 09:00:00 -1.7 0 Calma 2 Norte 0 -- -- 99
2020-01-09 08:00:00 -3 0 Calma 2 Oeste 0 -- -- 98
2020-01-09 07:00:00 -2.6 0 Calma 2 Noroeste 0 -- -- 98
2020-01-09 06:00:00 -2.9 0 Calma 2 Nordeste 0 -- -- 97
2020-01-09 05:00:00 -2.5 0 Calma 2 Norte 0 -- -- 97
2020-01-09 04:00:00 -2.4 0 Calma 2 Norte 0 -- -- 96
2020-01-09 03:00:00 -2.3 0 Calma 2 Norte 0 -- -- 95
2020-01-09 02:00:00 -1.8 0 Calma 2 Noroeste 0 -- -- 94
2020-01-09 01:00:00 -1.4 0 Calma 2 Norte 0 -- -- 93
2020-01-09 00:00:00 -0.8 0 Calma 3 Oeste 0 -- -- 90
2020-01-08 23:00:00 -0.4 0 Calma 2 Nordeste 0 -- -- 90
2020-01-08 22:00:00 0.1 0 Calma 3 Nordeste 0 -- -- 87
2020-01-08 21:00:00 1.4 0 Calma 2 Norte 0 -- -- 82
2020-01-08 20:00:00 3.5 0 Calma 7 Norte 0 -- -- 73
2020-01-08 19:00:00 6.5 2 Norte 3 Norte 0 -- -- 63
2020-01-08 18:00:00 10.9 2 Sudeste 3 Sudeste 0 -- -- 49
2020-01-08 17:00:00 13.4 2 Sudeste -- -- 0 -- -- 43
2020-01-08 16:00:00 14.8 5 Sudeste 14 Sudeste 0 -- -- 43
2020-01-08 15:00:00 15.3 5 Sudeste 14 Sur 0 -- -- 35
2020-01-08 14:00:00 14.2 4 Sur 12 Sudeste 0 -- -- 39
2020-01-08 13:00:00 11.4 2 Sur 4 Este 0 -- -- 50
2020-01-08 12:00:00 5.5 0 Calma 2 Oeste 0 -- -- 89
2020-01-08 11:00:00 -0.6 0 Calma 4 Norte 0 -- -- 100
2020-01-08 10:00:00 -3.6 3 Norte 4 Norte 0 -- -- 99
2020-01-08 09:00:00 -4.5 0 Calma 2 Noroeste 0 -- -- 98
2020-01-08 08:00:00 -4.4 0 Calma 2 Norte 0 -- -- 98
2020-01-08 07:00:00 -4.4 0 Calma 2 Noroeste 0 -- -- 97
2020-01-08 06:00:00 -4.2 0 Calma 2 Sudoeste 0 -- -- 98
2020-01-08 05:00:00 -4 0 Calma 0 Calma 0 -- -- 97
2020-01-08 04:00:00 -3.9 0 Calma 2 Noroeste 0 -- -- 97
2020-01-08 03:00:00 -3.7 0 Calma 2 Norte 0 -- -- 96
2020-01-08 02:00:00 -3.5 0 Calma 2 Norte 0 -- -- 96
2020-01-08 01:00:00 -3.2 0 Calma 2 Norte 0 -- -- 95
2020-01-08 00:00:00 -2.8 0 Calma 2 Norte 0 -- -- 94
2020-01-07 23:00:00 -2.4 0 Calma 3 Norte 0 -- -- 94
2020-01-07 22:00:00 -1.9 0 Calma 2 Noroeste 0 -- -- 91
2020-01-07 21:00:00 -0.9 0 Calma 2 Norte 0 -- -- 88
2020-01-07 20:00:00 0.8 0 Calma 3 Norte 0 -- -- 82
2020-01-07 19:00:00 4 0 Calma 2 Norte 0 -- -- 73
2020-01-07 18:00:00 8.4 2 Sudeste 9 Sudeste 0 -- -- 62
2020-01-07 17:00:00 11 2 Sudeste -- -- 0 -- -- 55
2020-01-07 16:00:00 11.5 5 Sudeste 11 Sur 0 -- -- 44
2020-01-07 15:00:00 10.7 4 Sudeste 9 Sur 0 -- -- 41
2020-01-07 14:00:00 8.5 0 Calma 2 Sudeste 0 -- -- 49
2020-01-07 13:00:00 5.1 2 Sudoeste 4 Sudeste 0 -- -- 72
2020-01-07 12:00:00 -0.5 0 Calma 2 Sur 0 -- -- 98
2020-01-07 11:00:00 -5 0 Calma 2 Norte 0 -- -- 99
2020-01-07 10:00:00 -7.8 0 Calma 2 Noroeste 0 -- -- 96
2020-01-07 09:00:00 -8.5 0 Calma 0 Calma 0 -- -- 94
2020-01-07 08:00:00 -8.2 0 Calma 0 Calma 0 -- -- 95
2020-01-07 07:00:00 -8 0 Calma 0 Calma 0 -- -- 94
2020-01-07 06:00:00 -7.4 0 Calma 2 Norte 0 -- -- 95
2020-01-07 05:00:00 -6.9 0 Calma 0 Calma 0 -- -- 95
2020-01-07 04:00:00 -5.8 0 Calma 2 Oeste 0 -- -- 97
2020-01-07 03:00:00 -4.7 0 Calma 2 Oeste 0 -- -- 99
2020-01-07 02:00:00 -4 0 Calma 2 Nordeste 0 -- -- 99
2020-01-07 01:00:00 -3.9 0 Calma 2 Sudeste 0 -- -- 98
2020-01-07 00:00:00 -4.6 0 Calma 3 Este 0 -- -- 95
2020-01-06 23:00:00 -3.8 0 Calma 2 Nordeste 0 -- -- 95
2020-01-06 22:00:00 -3.2 0 Calma 4 Norte 0 -- -- 94
2020-01-06 21:00:00 -2.5 3 Norte 4 Norte 0 -- -- 93
2020-01-06 20:00:00 -0.9 0 Calma 3 Norte 0 -- -- 89
2020-01-06 19:00:00 2.1 0 Calma 2 Sur 0 -- -- 82
2020-01-06 18:00:00 5.4 2 Sudeste 10 Sudeste 0 -- -- 70
2020-01-06 17:00:00 8 3 Sudeste 11 Este 0 -- -- 62
2020-01-06 16:00:00 8.4 2 Sudeste -- -- 0 -- -- 51
2020-01-06 15:00:00 9.3 2 Sur -- -- 0 -- -- 60
2020-01-06 14:00:00 8.7 3 Sur 10 Sudeste 0 -- -- 61
2020-01-06 13:00:00 6.9 4 Sudeste 7 Sudeste 0 -- -- 62
2020-01-06 12:00:00 2.9 0 Calma 3 Oeste 0 -- -- 85
2020-01-06 11:00:00 -3.5 0 Calma 2 Sudoeste 0 -- -- 100
2020-01-06 10:00:00 -6.8 0 Calma 2 Sur 0 -- -- 97